createdAt,value
2018-06-13T00:01:44.459Z,98.00
2018-06-13T00:03:49.082Z,97.60
2018-06-13T00:05:53.754Z,98.00
2018-06-13T00:07:58.343Z,97.60
2018-06-13T00:10:03.654Z,97.90
2018-06-13T00:12:08.320Z,97.60
2018-06-13T00:14:12.919Z,97.20
2018-06-13T00:16:17.546Z,97.40
2018-06-13T00:18:22.182Z,98.10
2018-06-13T00:20:26.822Z,97.20
2018-06-13T00:22:31.564Z,97.30
2018-06-13T00:24:36.199Z,97.50
2018-06-13T00:26:40.976Z,97.50
2018-06-13T00:28:45.608Z,97.50
2018-06-13T00:30:50.451Z,98.10
2018-06-13T00:32:55.034Z,97.90
2018-06-13T00:34:59.918Z,97.90
2018-06-13T00:37:04.544Z,96.90
2018-06-13T00:39:09.389Z,97.40
2018-06-13T00:41:14.014Z,97.10
2018-06-13T00:43:18.670Z,97.30
2018-06-13T00:45:23.399Z,97.30
2018-06-13T00:47:28.086Z,97.60
2018-06-13T00:51:38.006Z,98.00
2018-06-13T00:53:44.161Z,97.80
2018-06-13T00:55:59.816Z,97.80
2018-06-13T00:58:04.388Z,97.50
2018-06-13T01:00:09.096Z,97.40
2018-06-13T01:02:13.707Z,97.20
2018-06-13T01:04:18.419Z,97.50
2018-06-13T01:06:24.065Z,97.90
2018-06-13T01:08:28.709Z,97.50
2018-06-13T01:10:33.297Z,97.90
2018-06-13T01:12:38.007Z,97.60
2018-06-13T01:14:42.607Z,98.00
2018-06-13T01:16:47.343Z,97.20
2018-06-13T01:18:51.900Z,97.20
2018-06-13T01:20:56.698Z,97.10
2018-06-13T01:23:03.388Z,97.40
2018-06-13T01:25:08.163Z,97.30
2018-06-13T01:27:12.735Z,97.60
2018-06-13T01:29:17.429Z,97.80
2018-06-13T01:31:22.032Z,97.70
2018-06-13T01:33:26.706Z,97.90
2018-06-13T01:35:31.396Z,97.70
2018-06-13T01:37:36.908Z,98.10
2018-06-13T01:39:41.663Z,98.20
2018-06-13T01:41:46.297Z,98.10
2018-06-13T01:43:51.067Z,98.50
2018-06-13T01:45:55.710Z,98.10
2018-06-13T01:48:00.428Z,98.30
2018-06-13T01:50:05.011Z,98.60
2018-06-13T01:52:09.630Z,98.50
2018-06-13T01:54:14.216Z,98.60
2018-06-13T01:56:19.025Z,98.60
2018-06-13T01:58:23.660Z,98.70
2018-06-13T02:00:28.546Z,98.60
2018-06-13T02:02:33.168Z,98.40
2018-06-13T02:04:37.963Z,98.40
2018-06-13T02:06:42.594Z,98.70
2018-06-13T02:08:47.236Z,98.30
2018-06-13T02:10:51.951Z,98.60
2018-06-13T02:12:56.607Z,98.80
2018-06-13T02:15:01.209Z,98.90
2018-06-13T02:17:06.048Z,98.60
2018-06-13T02:19:10.624Z,98.50
2018-06-13T02:21:15.371Z,98.40
2018-06-13T02:23:19.973Z,98.50
2018-06-13T02:25:24.646Z,98.60
2018-06-13T02:27:29.267Z,98.60
2018-06-13T02:29:34.035Z,98.60
2018-06-13T02:31:38.682Z,98.60
2018-06-13T02:33:43.384Z,98.60
2018-06-13T02:35:48.004Z,98.80
2018-06-13T02:37:52.808Z,98.70
2018-06-13T02:39:57.421Z,98.80
2018-06-13T02:42:02.178Z,99.10
2018-06-13T02:44:07.135Z,99.20
2018-06-13T02:46:11.845Z,99.10
2018-06-13T02:48:16.438Z,99.20
2018-06-13T02:50:21.101Z,99.40
2018-06-13T02:52:25.665Z,99.30
2018-06-13T02:54:30.348Z,99.30
2018-06-13T02:56:34.977Z,99.30
2018-06-13T02:58:39.697Z,99.30
2018-06-13T03:00:44.361Z,99.00
2018-06-13T03:02:49.019Z,99.10
2018-06-13T03:04:53.601Z,99.30
2018-06-13T03:06:58.297Z,99.60
2018-06-13T03:09:02.896Z,99.30
2018-06-13T03:11:07.631Z,99.40
2018-06-13T03:13:12.185Z,99.70
2018-06-13T03:15:16.913Z,99.60
2018-06-13T03:17:21.503Z,99.40
2018-06-13T03:19:26.173Z,99.40
2018-06-13T03:21:30.814Z,99.00
2018-06-13T03:23:35.538Z,99.10
2018-06-13T03:25:40.144Z,99.30
2018-06-13T03:27:44.824Z,99.20
2018-06-13T03:29:49.451Z,99.60
2018-06-13T03:31:54.315Z,99.40
2018-06-13T03:33:58.909Z,99.30
2018-06-13T03:36:03.715Z,99.60
2018-06-13T03:38:08.291Z,99.50
2018-06-13T03:40:12.894Z,99.60
2018-06-13T03:42:17.592Z,99.90
2018-06-13T03:44:22.243Z,99.50
2018-06-13T03:46:26.909Z,99.30
2018-06-13T03:48:32.192Z,99.60
2018-06-13T03:50:36.930Z,99.70
2018-06-13T03:52:41.576Z,99.70
2018-06-13T03:54:46.343Z,99.70
2018-06-13T03:56:50.996Z,99.50
2018-06-13T03:58:55.599Z,99.70
2018-06-13T04:01:00.189Z,99.90
2018-06-13T04:03:04.871Z,99.90
2018-06-13T04:05:09.453Z,99.80
2018-06-13T04:07:14.457Z,99.70
2018-06-13T04:09:19.147Z,99.70
2018-06-13T04:13:28.481Z,99.60
2018-06-13T04:15:33.327Z,99.60
2018-06-13T04:17:38.022Z,99.50
2018-06-13T04:19:42.729Z,99.20
2018-06-13T04:21:47.328Z,99.60
2018-06-13T04:23:52.197Z,99.40
2018-06-13T04:25:57.334Z,99.30
2018-06-13T04:28:02.313Z,99.60
2018-06-13T04:30:07.211Z,99.20
2018-06-13T04:32:11.984Z,99.40
2018-06-13T04:34:16.700Z,99.70
2018-06-13T04:36:21.524Z,99.60
2018-06-13T04:38:26.295Z,99.70
2018-06-13T04:40:31.418Z,99.40
2018-06-13T04:42:36.513Z,99.00
2018-06-13T04:44:43.253Z,99.10
2018-06-13T04:46:48.944Z,99.00
2018-06-13T04:48:54.403Z,98.90
2018-06-13T04:50:59.627Z,98.90
2018-06-13T04:53:04.516Z,98.70
2018-06-13T04:55:09.374Z,98.80
2018-06-13T04:57:14.094Z,98.70
2018-06-13T04:59:18.768Z,98.70
2018-06-13T05:01:23.466Z,98.00
2018-06-13T05:03:28.087Z,97.70
2018-06-13T05:05:32.741Z,97.90
2018-06-13T05:07:37.467Z,98.30
2018-06-13T05:09:42.071Z,98.30
2018-06-13T05:11:46.829Z,97.50
2018-06-13T05:13:51.559Z,97.60
2018-06-13T05:15:56.315Z,98.10
2018-06-13T05:18:01.157Z,97.90
2018-06-13T05:20:06.872Z,97.20
2018-06-13T05:22:11.560Z,97.60
2018-06-13T05:24:16.371Z,96.30
2018-06-13T05:26:21.041Z,95.80
2018-06-13T05:28:25.688Z,95.10
2018-06-13T05:30:30.388Z,95.50
2018-06-13T05:32:35.109Z,95.60
2018-06-13T05:34:39.758Z,94.40
2018-06-13T05:36:44.437Z,95.10
2018-06-13T05:38:49.022Z,94.80
2018-06-13T05:40:53.788Z,93.20
2018-06-13T05:42:58.588Z,93.90
2018-06-13T05:45:03.163Z,92.60
2018-06-13T05:47:07.700Z,92.50
2018-06-13T05:49:12.374Z,91.80
2018-06-13T05:51:17.174Z,93.60
2018-06-13T05:53:21.828Z,91.70
2018-06-13T05:55:26.404Z,92.10
2018-06-13T05:57:31.156Z,92.00
2018-06-13T05:59:35.840Z,92.20
2018-06-13T06:01:40.503Z,93.00
2018-06-13T06:03:45.312Z,91.80
2018-06-13T06:05:49.977Z,92.40
2018-06-13T06:07:54.802Z,92.30
2018-06-13T06:09:59.460Z,93.60
2018-06-13T06:12:04.115Z,92.40
2018-06-13T06:14:08.814Z,91.90
2018-06-13T06:16:14.053Z,91.50
2018-06-13T06:18:25.124Z,92.00
2018-06-13T06:20:29.756Z,90.20
2018-06-13T06:22:34.430Z,91.60
2018-06-13T06:24:39.152Z,92.10
2018-06-13T06:26:43.829Z,92.10
2018-06-13T06:28:48.463Z,91.60
2018-06-13T06:30:53.099Z,90.60
2018-06-13T06:32:57.904Z,91.00
2018-06-13T06:35:02.641Z,92.00
2018-06-13T06:37:07.380Z,91.70
2018-06-13T06:39:12.166Z,90.60
2018-06-13T06:41:16.854Z,90.50
2018-06-13T06:43:21.565Z,91.50
2018-06-13T06:45:26.257Z,90.50
2018-06-13T06:47:31.016Z,90.70
2018-06-13T06:49:35.728Z,91.10
2018-06-13T06:51:40.851Z,90.20
2018-06-13T06:53:45.444Z,90.30
2018-06-13T06:55:50.161Z,88.90
2018-06-13T06:57:54.849Z,88.30
2018-06-13T06:59:59.612Z,88.20
2018-06-13T07:02:04.246Z,87.40
2018-06-13T07:04:09.026Z,86.60
2018-06-13T07:06:13.682Z,86.70
2018-06-13T07:08:18.406Z,87.50
2018-06-13T07:10:23.052Z,84.20
2018-06-13T07:12:27.665Z,84.30
2018-06-13T07:16:36.523Z,81.30
2018-06-13T07:18:41.212Z,78.80
2018-06-13T07:20:46.052Z,79.60
2018-06-13T07:22:50.665Z,75.30
2018-06-13T07:24:55.407Z,77.30
2018-06-13T07:27:00.025Z,66.60
2018-06-13T07:29:04.794Z,75.10
2018-06-13T07:31:09.439Z,74.80
2018-06-13T07:33:14.125Z,72.60
2018-06-13T07:35:18.777Z,71.40
2018-06-13T07:37:23.471Z,67.70
2018-06-13T07:39:28.179Z,70.00
2018-06-13T07:41:32.862Z,63.80
2018-06-13T07:43:37.493Z,64.70
2018-06-13T07:45:42.218Z,67.60
2018-06-13T07:47:46.790Z,67.00
2018-06-13T07:49:51.609Z,63.40
2018-06-13T07:51:56.285Z,57.00
2018-06-13T07:54:00.989Z,58.40
2018-06-13T07:56:05.815Z,53.00
2018-06-13T07:58:10.613Z,57.60
2018-06-13T08:00:15.328Z,53.50
2018-06-13T08:02:20.030Z,58.60
2018-06-13T08:04:24.863Z,59.60
2018-06-13T08:06:30.695Z,58.30
2018-06-13T08:08:35.398Z,61.70
2018-06-13T08:10:40.233Z,57.10
2018-06-13T08:12:44.839Z,52.50
2018-06-13T08:14:49.618Z,52.50
2018-06-13T08:16:54.393Z,53.90
2018-06-13T08:18:59.166Z,51.10
2018-06-13T08:21:03.941Z,50.40
2018-06-13T08:23:08.722Z,44.20
2018-06-13T08:25:13.471Z,46.90
2018-06-13T08:29:22.969Z,41.50
2018-06-13T08:31:27.719Z,46.90
2018-06-13T08:33:32.441Z,42.50
2018-06-13T08:35:37.292Z,41.50
2018-06-13T08:37:41.996Z,44.40
2018-06-13T08:39:46.630Z,48.30
2018-06-13T08:41:51.377Z,42.70
2018-06-13T08:43:56.021Z,43.40
2018-06-13T08:46:00.723Z,38.90
2018-06-13T08:48:05.435Z,37.60
2018-06-13T08:50:10.010Z,41.00
2018-06-13T08:54:18.701Z,46.60
2018-06-13T08:56:23.387Z,48.10
2018-06-13T08:58:28.056Z,50.50
2018-06-13T09:00:32.739Z,52.40
2018-06-13T09:02:37.589Z,54.00
2018-06-13T09:04:42.302Z,53.70
2018-06-13T09:06:47.161Z,55.20
2018-06-13T09:08:51.946Z,57.40
2018-06-13T09:10:56.724Z,58.30
2018-06-13T09:13:01.398Z,56.70
2018-06-13T09:15:06.228Z,58.60
2018-06-13T09:17:10.917Z,58.80
2018-06-13T09:19:15.587Z,60.70
2018-06-13T09:21:20.247Z,60.30
2018-06-13T09:23:24.875Z,59.40
2018-06-13T09:25:29.541Z,60.10
2018-06-13T09:27:34.318Z,58.70
2018-06-13T09:29:38.901Z,57.60
2018-06-13T09:31:43.639Z,56.80
2018-06-13T09:33:48.260Z,57.80
2018-06-13T09:35:54.141Z,58.20
2018-06-13T09:37:58.786Z,56.90
2018-06-13T09:40:04.581Z,52.80
2018-06-13T09:42:09.260Z,51.60
2018-06-13T09:44:14.013Z,50.40
2018-06-13T09:46:18.667Z,50.80
2018-06-13T09:48:23.321Z,50.50
2018-06-13T09:50:28.026Z,50.90
2018-06-13T09:52:32.729Z,49.80
2018-06-13T09:54:37.440Z,53.80
2018-06-13T09:56:42.107Z,51.60
2018-06-13T09:58:52.070Z,52.80
2018-06-13T10:01:01.772Z,47.60
2018-06-13T10:03:06.499Z,48.60
2018-06-13T10:05:11.210Z,48.40
2018-06-13T10:07:15.896Z,45.00
2018-06-13T10:09:20.564Z,45.00
2018-06-13T10:11:25.189Z,43.30
2018-06-13T10:13:29.874Z,42.50
2018-06-13T10:15:34.443Z,41.70
2018-06-13T10:17:39.133Z,44.30
2018-06-13T10:19:43.708Z,43.20
2018-06-13T10:21:48.293Z,47.30
2018-06-13T10:23:52.922Z,47.10
2018-06-13T10:25:57.535Z,46.70
2018-06-13T10:28:02.258Z,47.40
2018-06-13T10:30:07.060Z,48.50
2018-06-13T10:32:11.720Z,50.30
2018-06-13T10:34:16.427Z,47.90
2018-06-13T10:36:20.948Z,46.40
2018-06-13T10:38:25.540Z,46.80
2018-06-13T10:40:30.188Z,48.40
2018-06-13T10:42:34.912Z,47.00
2018-06-13T10:44:39.522Z,46.30
2018-06-13T10:46:44.134Z,48.80
2018-06-13T10:48:48.769Z,47.90
2018-06-13T10:50:53.482Z,45.90
2018-06-13T10:52:58.107Z,49.20
2018-06-13T10:55:02.891Z,49.30
2018-06-13T10:57:07.566Z,45.40
2018-06-13T10:59:12.285Z,46.00
2018-06-13T11:01:16.818Z,44.40
2018-06-13T11:03:21.563Z,45.30
2018-06-13T11:05:26.184Z,45.30
2018-06-13T11:07:30.975Z,43.70
2018-06-13T11:09:35.744Z,46.30
2018-06-13T11:11:40.342Z,47.90
2018-06-13T11:13:45.196Z,47.40
2018-06-13T11:15:49.805Z,48.30
2018-06-13T11:17:54.691Z,48.70
2018-06-13T11:19:59.387Z,46.60
2018-06-13T11:24:08.543Z,44.60
2018-06-13T11:26:13.305Z,44.40
2018-06-13T11:28:18.065Z,43.70
2018-06-13T11:30:22.867Z,42.40
2018-06-13T11:32:27.571Z,43.50
2018-06-13T11:34:32.988Z,44.50
2018-06-13T11:36:38.180Z,44.70
2018-06-13T11:38:42.861Z,46.80
2018-06-13T11:40:47.562Z,47.10
2018-06-13T11:42:52.426Z,44.90
2018-06-13T11:44:57.064Z,45.20
2018-06-13T11:47:01.785Z,39.50
2018-06-13T11:49:06.955Z,41.80
2018-06-13T11:51:11.858Z,44.70
2018-06-13T11:53:16.584Z,43.10
2018-06-13T11:55:21.826Z,46.70
2018-06-13T11:57:26.543Z,40.30
2018-06-13T11:59:31.326Z,40.50
2018-06-13T12:01:36.162Z,41.00
2018-06-13T12:03:51.259Z,41.90
2018-06-13T12:05:56.347Z,35.50
2018-06-13T12:08:01.519Z,37.40
2018-06-13T12:10:07.160Z,33.90
2018-06-13T12:12:11.907Z,36.30
2018-06-13T12:16:20.722Z,37.00
2018-06-13T12:18:26.081Z,38.10
2018-06-13T12:20:31.355Z,38.80
2018-06-13T12:22:36.602Z,39.50
2018-06-13T12:24:42.802Z,40.70
2018-06-13T12:26:47.747Z,39.30
2018-06-13T12:28:52.679Z,40.30
2018-06-13T12:30:57.390Z,40.40
2018-06-13T12:33:02.136Z,40.90
2018-06-13T12:35:07.054Z,41.00
2018-06-13T12:37:11.916Z,40.80
2018-06-13T12:39:16.935Z,39.50
2018-06-13T12:41:22.748Z,35.60
2018-06-13T12:43:27.406Z,39.20
2018-06-13T12:45:32.165Z,38.70
2018-06-13T12:47:36.928Z,38.60
2018-06-13T12:49:41.735Z,34.30
2018-06-13T12:51:46.328Z,35.30
2018-06-13T12:53:51.102Z,38.20
2018-06-13T12:55:55.708Z,36.60
2018-06-13T12:58:00.366Z,36.90
2018-06-13T13:00:05.556Z,36.30
2018-06-13T13:02:10.562Z,36.20
2018-06-13T13:04:15.383Z,35.00
2018-06-13T13:06:20.000Z,34.40
2018-06-13T13:08:24.736Z,34.00
2018-06-13T13:10:29.383Z,29.60
2018-06-13T13:12:34.952Z,29.90
2018-06-13T13:14:39.875Z,28.30
2018-06-13T13:16:44.589Z,30.00
2018-06-13T13:20:54.012Z,28.90
2018-06-13T13:22:58.654Z,29.80
2018-06-13T13:25:03.396Z,29.80
2018-06-13T13:27:08.085Z,28.40
2018-06-13T13:29:12.857Z,29.80
2018-06-13T13:31:17.468Z,30.00
2018-06-13T13:33:22.132Z,30.50
2018-06-13T13:35:26.943Z,32.60
2018-06-13T13:37:31.603Z,30.50
2018-06-13T13:39:36.400Z,31.50
2018-06-13T13:41:41.419Z,32.50
2018-06-13T13:43:46.023Z,30.50
2018-06-13T13:45:50.685Z,32.30
2018-06-13T13:47:55.357Z,30.50
2018-06-13T13:50:00.125Z,30.80
2018-06-13T13:52:04.928Z,30.80
2018-06-13T13:54:09.902Z,27.90
2018-06-13T13:56:15.194Z,28.60
2018-06-13T13:58:19.853Z,29.80
2018-06-13T14:00:24.528Z,29.10
2018-06-13T14:02:29.140Z,29.20
2018-06-13T14:04:33.944Z,30.00
2018-06-13T14:06:38.564Z,30.70
2018-06-13T14:08:43.207Z,31.00
2018-06-13T14:10:47.901Z,32.00
2018-06-13T14:12:52.536Z,32.20
2018-06-13T14:14:57.253Z,29.90
2018-06-13T14:17:01.908Z,30.70
2018-06-13T14:19:06.788Z,30.60
2018-06-13T14:21:11.767Z,33.00
2018-06-13T14:23:16.885Z,32.70
2018-06-13T14:25:21.521Z,33.80
2018-06-13T14:27:26.250Z,34.50
2018-06-13T14:29:30.975Z,36.10
2018-06-13T14:31:35.668Z,36.40
2018-06-13T14:33:40.862Z,36.60
2018-06-13T14:35:45.505Z,34.80
2018-06-13T14:37:50.738Z,32.90
2018-06-13T14:39:55.552Z,34.70
2018-06-13T14:42:01.960Z,31.20
2018-06-13T14:44:10.438Z,30.30
2018-06-13T14:46:20.111Z,32.00
2018-06-13T14:48:28.752Z,31.50
2018-06-13T14:50:37.123Z,32.30
2018-06-13T14:52:46.166Z,32.10
2018-06-13T14:54:56.231Z,35.30
2018-06-13T14:57:03.763Z,34.90
2018-06-13T14:59:13.524Z,32.60
2018-06-13T15:01:21.434Z,33.90
2018-06-13T15:05:46.143Z,34.00
2018-06-13T15:07:55.288Z,33.80
2018-06-13T15:10:03.547Z,34.10
2018-06-13T15:12:08.390Z,30.00
2018-06-13T15:14:13.099Z,31.70
2018-06-13T15:16:17.876Z,32.30
2018-06-13T15:18:51.280Z,33.40
2018-06-13T15:23:01.070Z,33.90
2018-06-13T15:25:05.808Z,34.30
2018-06-13T15:27:23.719Z,33.70
2018-06-13T15:29:31.923Z,34.00
2018-06-13T15:31:36.662Z,32.70
2018-06-13T15:33:41.904Z,34.10
2018-06-13T15:35:46.750Z,33.70
2018-06-13T15:37:52.012Z,33.20
2018-06-13T15:39:57.756Z,36.10
2018-06-13T15:44:07.187Z,35.80
2018-06-13T15:46:12.057Z,35.70
2018-06-13T15:48:17.125Z,33.60
2018-06-13T15:50:22.991Z,34.30
2018-06-13T15:52:28.061Z,34.30
2018-06-13T15:54:33.028Z,34.00
2018-06-13T15:56:37.967Z,31.00
2018-06-13T15:58:42.655Z,32.90
2018-06-13T16:00:47.508Z,32.30
2018-06-13T16:02:52.231Z,33.60
2018-06-13T16:04:57.199Z,38.80
2018-06-13T16:07:04.748Z,41.30
2018-06-13T16:09:18.411Z,41.60
2018-06-13T16:13:27.609Z,37.80
2018-06-13T16:15:32.303Z,37.20
2018-06-13T16:17:37.145Z,38.70
2018-06-13T16:19:41.933Z,37.70
2018-06-13T16:21:46.609Z,38.30
2018-06-13T16:23:51.561Z,39.60
2018-06-13T16:25:57.063Z,38.10
2018-06-13T16:28:01.844Z,40.70
2018-06-13T16:30:07.081Z,39.00
2018-06-13T16:32:12.335Z,36.00
2018-06-13T16:34:17.199Z,37.00
2018-06-13T16:36:22.666Z,34.50
2018-06-13T16:38:28.991Z,35.10
2018-06-13T16:40:33.853Z,34.90
2018-06-13T16:42:38.819Z,36.10
2018-06-13T16:44:44.221Z,31.40
2018-06-13T16:46:49.033Z,34.00
2018-06-13T16:48:53.697Z,30.60
2018-06-13T16:51:09.619Z,35.30
2018-06-13T16:53:24.274Z,33.40
2018-06-13T16:55:29.072Z,31.90
2018-06-13T16:57:34.035Z,31.60
2018-06-13T16:59:38.689Z,32.80
2018-06-13T17:01:43.705Z,34.00
2018-06-13T17:03:48.336Z,35.40
2018-06-13T17:05:53.994Z,36.10
2018-06-13T17:07:58.780Z,35.10
2018-06-13T17:10:04.029Z,33.50
2018-06-13T17:12:16.129Z,36.70
2018-06-13T17:14:21.679Z,36.00
2018-06-13T17:16:26.416Z,35.40
2018-06-13T17:20:36.435Z,37.50
2018-06-13T17:22:41.845Z,38.10
2018-06-13T17:24:46.594Z,40.60
2018-06-13T17:26:52.510Z,43.00
2018-06-13T17:28:57.320Z,42.00
2018-06-13T17:31:02.089Z,43.20
2018-06-13T17:33:07.087Z,42.20
2018-06-13T17:35:12.562Z,43.40
2018-06-13T17:37:18.296Z,43.00
2018-06-13T17:39:26.411Z,42.80
2018-06-13T17:41:31.510Z,43.20
2018-06-13T17:43:36.435Z,43.80
2018-06-13T17:45:41.220Z,42.60
2018-06-13T17:47:46.941Z,43.30
2018-06-13T17:49:51.897Z,40.50
2018-06-13T17:51:57.289Z,43.70
2018-06-13T17:54:20.590Z,44.80
2018-06-13T17:58:39.719Z,42.80
2018-06-13T18:00:45.291Z,41.70
2018-06-13T18:02:52.003Z,42.80
2018-06-13T18:04:56.894Z,45.40
2018-06-13T18:07:01.683Z,43.40
2018-06-13T18:09:08.944Z,44.10
2018-06-13T18:11:16.648Z,44.40
2018-06-13T18:13:26.764Z,45.00
2018-06-13T18:15:33.130Z,46.00
2018-06-13T18:17:44.156Z,48.00
2018-06-13T18:19:48.785Z,47.80
2018-06-13T18:21:53.558Z,47.10
2018-06-13T18:23:58.236Z,45.90
2018-06-13T18:26:03.014Z,49.20
2018-06-13T18:28:07.816Z,49.60
2018-06-13T18:30:12.631Z,50.00
2018-06-13T18:32:17.605Z,47.70
2018-06-13T18:34:22.645Z,50.10
2018-06-13T18:36:27.510Z,50.90
2018-06-13T18:38:32.834Z,53.00
2018-06-13T18:40:37.588Z,54.40
2018-06-13T18:42:42.535Z,54.00
2018-06-13T18:44:54.265Z,54.80
2018-06-13T18:46:59.312Z,54.30
2018-06-13T18:49:04.032Z,55.00
2018-06-13T18:51:09.163Z,54.50
2018-06-13T18:53:14.541Z,55.00
2018-06-13T18:55:19.622Z,54.70
2018-06-13T18:57:24.476Z,56.30
2018-06-13T18:59:29.242Z,55.80
2018-06-13T19:01:34.884Z,56.20
2018-06-13T19:03:39.604Z,53.40
2018-06-13T19:05:44.169Z,56.00
2018-06-13T19:07:48.941Z,57.10
2018-06-13T19:09:54.407Z,58.00
2018-06-13T19:11:59.204Z,58.10
2018-06-13T19:14:04.725Z,59.20
2018-06-13T19:16:09.857Z,60.20
2018-06-13T19:18:14.952Z,62.20
2018-06-13T19:20:24.248Z,62.00
2018-06-13T19:22:34.257Z,62.40
2018-06-13T19:26:46.333Z,62.10
2018-06-13T19:28:52.057Z,62.80
2018-06-13T19:30:57.001Z,63.10
2018-06-13T19:33:01.704Z,63.80
2018-06-13T19:35:07.440Z,63.10
2018-06-13T19:37:12.369Z,62.20
2018-06-13T19:39:17.206Z,63.80
2018-06-13T19:41:22.243Z,64.30
2018-06-13T19:43:32.205Z,66.10
2018-06-13T19:45:36.863Z,67.30
2018-06-13T19:47:46.627Z,68.20
2018-06-13T19:49:52.493Z,69.30
2018-06-13T19:51:57.454Z,70.20
2018-06-13T19:54:19.092Z,71.40
2018-06-13T19:56:33.889Z,71.70
2018-06-13T19:58:40.234Z,72.90
2018-06-13T20:00:45.291Z,74.70
2018-06-13T20:02:56.832Z,76.00
2018-06-13T20:05:08.316Z,77.60
2018-06-13T20:07:16.587Z,79.30
2018-06-13T20:09:22.154Z,80.00
2018-06-13T20:11:30.191Z,80.60
2018-06-13T20:13:41.008Z,80.60
2018-06-13T20:15:51.011Z,81.50
2018-06-13T20:18:01.090Z,81.70
2018-06-13T20:20:08.791Z,81.20
2018-06-13T20:22:13.671Z,81.10
2018-06-13T20:24:18.571Z,81.90
2018-06-13T20:26:30.048Z,82.50
2018-06-13T20:28:40.232Z,83.20
2018-06-13T20:30:51.032Z,84.20
2018-06-13T20:32:55.835Z,84.70
2018-06-13T20:35:01.203Z,85.30
2018-06-13T20:37:07.306Z,89.70
2018-06-13T20:39:12.596Z,89.30
2018-06-13T20:41:17.887Z,90.20
2018-06-13T20:43:23.112Z,90.40
2018-06-13T20:45:27.716Z,91.50
2018-06-13T20:47:33.162Z,92.10
2018-06-13T20:49:38.013Z,93.10
2018-06-13T20:51:42.601Z,93.70
2018-06-13T20:53:47.184Z,93.60
2018-06-13T20:55:52.254Z,93.50
2018-06-13T20:58:02.285Z,93.80
2018-06-13T21:00:07.558Z,93.80
2018-06-13T21:02:12.965Z,93.60
2018-06-13T21:04:17.528Z,93.90
2018-06-13T21:06:22.312Z,93.40
2018-06-13T21:08:28.271Z,93.10
2018-06-13T21:10:33.299Z,93.00
2018-06-13T21:12:38.351Z,92.90
2018-06-13T21:14:44.981Z,93.10
2018-06-13T21:16:50.563Z,93.30
2018-06-13T21:18:55.574Z,93.60
2018-06-13T21:21:00.205Z,93.70
2018-06-13T21:23:06.315Z,93.80
2018-06-13T21:25:11.070Z,93.80
2018-06-13T21:27:16.175Z,93.90
2018-06-13T21:29:21.523Z,93.90
2018-06-13T21:31:26.213Z,94.00
2018-06-13T21:33:30.789Z,94.50
2018-06-13T21:35:36.131Z,94.40
2018-06-13T21:37:41.134Z,94.30
2018-06-13T21:39:46.344Z,93.80
2018-06-13T21:41:51.026Z,94.00
2018-06-13T21:43:56.687Z,94.00
2018-06-13T21:46:01.584Z,93.80
2018-06-13T21:48:06.383Z,94.00
2018-06-13T21:50:11.046Z,94.00
2018-06-13T21:52:15.804Z,94.40
2018-06-13T21:54:20.456Z,94.30
2018-06-13T21:56:25.220Z,95.00
2018-06-13T21:58:30.160Z,94.60
2018-06-13T22:00:34.806Z,95.50
2018-06-13T22:02:39.598Z,95.80
2018-06-13T22:04:45.559Z,95.90
2018-06-13T22:06:50.304Z,95.90
2018-06-13T22:08:55.322Z,95.90
2018-06-13T22:11:00.327Z,95.90
2018-06-13T22:13:06.203Z,96.00
2018-06-13T22:15:16.078Z,96.00
2018-06-13T22:17:20.832Z,96.00
2018-06-13T22:19:25.608Z,96.10
2018-06-13T22:21:30.284Z,95.20
2018-06-13T22:23:35.071Z,94.70
2018-06-13T22:25:39.643Z,94.60
2018-06-13T22:27:44.472Z,94.90
2018-06-13T22:29:49.195Z,95.00
2018-06-13T22:31:53.954Z,95.10
2018-06-13T22:33:58.693Z,94.90
2018-06-13T22:36:03.416Z,95.20
2018-06-13T22:38:08.091Z,95.50
2018-06-13T22:40:12.756Z,95.20
2018-06-13T22:42:17.359Z,95.10
2018-06-13T22:44:21.988Z,94.90
2018-06-13T22:46:26.738Z,95.40
2018-06-13T22:48:31.408Z,95.40
2018-06-13T22:50:36.156Z,95.60
2018-06-13T22:52:41.076Z,95.40
2018-06-13T22:54:45.711Z,95.40
2018-06-13T22:56:50.463Z,95.40
2018-06-13T22:58:55.106Z,95.60
2018-06-13T23:01:08.901Z,95.80
2018-06-13T23:03:13.483Z,95.30
2018-06-13T23:05:18.465Z,95.70
2018-06-13T23:07:23.061Z,95.50
2018-06-13T23:09:27.717Z,95.70
2018-06-13T23:13:36.797Z,95.60
2018-06-13T23:15:41.898Z,96.00
2018-06-13T23:17:46.615Z,95.90
2018-06-13T23:21:55.427Z,96.30
2018-06-13T23:24:00.038Z,96.70
2018-06-13T23:26:04.659Z,96.50
2018-06-13T23:28:09.299Z,96.40
2018-06-13T23:30:14.076Z,96.70
2018-06-13T23:32:18.812Z,96.70
2018-06-13T23:34:23.537Z,96.70
2018-06-13T23:36:28.364Z,96.40
2018-06-13T23:38:33.026Z,96.10
2018-06-13T23:40:37.788Z,96.30
2018-06-13T23:42:42.558Z,96.00
2018-06-13T23:44:47.185Z,96.40
2018-06-13T23:46:52.136Z,96.40
2018-06-13T23:48:56.836Z,96.20
2018-06-13T23:51:01.522Z,96.30
2018-06-13T23:53:06.743Z,96.40
2018-06-13T23:55:11.828Z,96.80
2018-06-13T23:57:17.075Z,96.80
2018-06-13T23:59:22.721Z,96.60
